createdAt,value
2023-06-11T00:01:09.852Z,18.70
2023-06-11T00:04:20.496Z,18.88
2023-06-11T00:07:27.239Z,19.14
2023-06-11T00:10:32.728Z,19.13
2023-06-11T00:13:38.360Z,18.97
2023-06-11T00:16:45.189Z,19.01
2023-06-11T00:19:51.573Z,19.01
2023-06-11T00:22:56.861Z,19.00
2023-06-11T00:26:02.313Z,18.95
2023-06-11T00:29:09.173Z,19.03
2023-06-11T00:32:14.423Z,18.91
2023-06-11T00:35:19.811Z,18.89
2023-06-11T00:38:25.656Z,18.88
2023-06-11T00:41:32.265Z,18.85
2023-06-11T00:44:37.617Z,18.86
2023-06-11T00:47:43.204Z,19.04
2023-06-11T00:50:53.359Z,19.05
2023-06-11T00:53:59.349Z,18.98
2023-06-11T00:57:04.770Z,18.85
2023-06-11T01:00:14.052Z,18.88
2023-06-11T01:03:28.391Z,18.87
2023-06-11T01:06:36.456Z,18.87
2023-06-11T01:09:43.622Z,18.94
2023-06-11T01:12:49.656Z,18.96
2023-06-11T01:16:03.612Z,19.09
2023-06-11T01:19:14.291Z,19.07
2023-06-11T01:22:31.025Z,18.98
2023-06-11T01:25:47.719Z,18.90
2023-06-11T01:28:58.041Z,18.90
2023-06-11T01:32:05.872Z,18.86
2023-06-11T01:35:12.416Z,18.69
2023-06-11T01:38:24.318Z,18.77
2023-06-11T01:41:31.955Z,18.84
2023-06-11T01:44:38.724Z,18.99
2023-06-11T01:47:46.137Z,18.95
2023-06-11T01:50:52.666Z,18.84
2023-06-11T01:53:58.548Z,18.64
2023-06-11T01:57:04.253Z,18.69
2023-06-11T02:00:13.148Z,18.78
2023-06-11T02:03:21.876Z,18.65
2023-06-11T02:06:27.662Z,18.62
2023-06-11T02:09:33.493Z,18.83
2023-06-11T02:12:39.576Z,18.87
2023-06-11T02:15:44.878Z,18.91
2023-06-11T02:18:50.522Z,18.49
2023-06-11T02:21:55.740Z,18.48
2023-06-11T02:25:01.758Z,18.60
2023-06-11T02:28:08.424Z,18.70
2023-06-11T02:31:14.758Z,18.61
2023-06-11T02:34:21.293Z,18.53
2023-06-11T02:37:27.477Z,18.55
2023-06-11T02:40:32.890Z,18.49
2023-06-11T02:43:38.351Z,18.56
2023-06-11T02:46:44.180Z,18.55
2023-06-11T02:49:49.862Z,18.52
2023-06-11T02:52:55.716Z,18.30
2023-06-11T02:56:01.370Z,18.42
2023-06-11T02:59:07.006Z,18.28
2023-06-11T03:02:12.556Z,18.33
2023-06-11T03:05:17.842Z,18.33
2023-06-11T03:08:23.638Z,18.46
2023-06-11T03:11:29.850Z,18.39
2023-06-11T03:14:35.590Z,18.25
2023-06-11T03:17:41.251Z,18.21
2023-06-11T03:20:46.523Z,18.37
2023-06-11T03:23:52.272Z,18.28
2023-06-11T03:27:00.559Z,18.09
2023-06-11T03:30:08.474Z,18.24
2023-06-11T03:33:16.930Z,18.20
2023-06-11T03:36:22.136Z,17.88
2023-06-11T03:39:28.448Z,18.02
2023-06-11T03:42:37.021Z,18.12
2023-06-11T03:45:43.190Z,18.18
2023-06-11T03:48:50.339Z,18.12
2023-06-11T03:51:57.354Z,18.06
2023-06-11T03:55:03.380Z,18.00
2023-06-11T03:58:09.321Z,17.86
2023-06-11T04:01:15.764Z,17.97
2023-06-11T04:04:21.379Z,17.93
2023-06-11T04:07:27.115Z,17.99
2023-06-11T04:10:33.623Z,18.11
2023-06-11T04:13:38.913Z,17.96
2023-06-11T04:16:44.894Z,18.16
2023-06-11T04:19:50.638Z,18.14
2023-06-11T04:22:56.456Z,18.26
2023-06-11T04:26:03.938Z,18.34
2023-06-11T04:29:10.995Z,18.45
2023-06-11T04:32:18.339Z,18.76
2023-06-11T04:35:25.016Z,19.05
2023-06-11T04:38:31.880Z,21.16
2023-06-11T04:41:41.271Z,22.55
2023-06-11T04:44:49.209Z,22.85
2023-06-11T04:47:56.055Z,20.04
2023-06-11T04:51:02.448Z,19.58
2023-06-11T04:54:14.993Z,19.44
2023-06-11T04:57:25.462Z,19.61
2023-06-11T05:00:31.611Z,19.69
2023-06-11T05:03:40.126Z,19.89
2023-06-11T05:06:50.420Z,20.04
2023-06-11T05:10:00.367Z,20.12
2023-06-11T05:13:07.560Z,20.24
2023-06-11T05:16:14.218Z,20.56
2023-06-11T05:19:21.125Z,20.63
2023-06-11T05:22:28.294Z,20.73
2023-06-11T05:25:33.933Z,20.84
2023-06-11T05:28:43.429Z,20.85
2023-06-11T05:31:50.453Z,21.02
2023-06-11T05:34:57.534Z,20.38
2023-06-11T05:38:05.056Z,20.96
2023-06-11T05:41:10.782Z,20.94
2023-06-11T05:44:18.918Z,20.72
2023-06-11T05:47:25.470Z,20.92
2023-06-11T05:50:31.129Z,20.52
2023-06-11T05:53:37.142Z,21.20
2023-06-11T05:56:44.675Z,21.20
2023-06-11T05:59:51.393Z,21.34
2023-06-11T06:02:57.896Z,21.45
2023-06-11T06:06:10.306Z,21.50
2023-06-11T06:09:16.819Z,21.75
2023-06-11T06:12:23.352Z,21.96
2023-06-11T06:15:28.727Z,21.43
2023-06-11T06:18:36.422Z,22.05
2023-06-11T06:21:42.068Z,21.73
2023-06-11T06:24:47.880Z,21.97
2023-06-11T06:27:55.024Z,22.32
2023-06-11T06:31:01.305Z,22.24
2023-06-11T06:34:08.631Z,22.27
2023-06-11T06:37:15.048Z,21.80
2023-06-11T06:40:24.827Z,22.12
2023-06-11T06:43:31.138Z,22.54
2023-06-11T06:46:38.716Z,22.80
2023-06-11T06:49:44.367Z,22.94
2023-06-11T06:52:50.350Z,22.96
2023-06-11T06:55:56.652Z,23.22
2023-06-11T06:59:03.082Z,23.15
2023-06-11T07:02:10.432Z,22.96
2023-06-11T07:05:18.732Z,23.25
2023-06-11T07:08:24.927Z,23.30
2023-06-11T07:11:30.637Z,23.56
2023-06-11T07:14:37.385Z,23.49
2023-06-11T07:17:44.256Z,23.44
2023-06-11T07:20:50.316Z,23.81
2023-06-11T07:23:55.984Z,23.83
2023-06-11T07:27:01.548Z,23.84
2023-06-11T07:30:08.511Z,23.93
2023-06-11T07:33:16.889Z,24.00
2023-06-11T07:36:23.141Z,24.22
2023-06-11T07:39:28.549Z,24.02
2023-06-11T07:42:34.747Z,23.95
2023-06-11T07:45:40.667Z,24.13
2023-06-11T07:48:46.718Z,24.28
2023-06-11T07:51:52.260Z,24.45
2023-06-11T07:54:59.015Z,24.33
2023-06-11T07:58:04.319Z,24.39
2023-06-11T08:01:09.977Z,24.58
2023-06-11T08:04:15.412Z,24.63
2023-06-11T08:07:21.745Z,24.30
2023-06-11T08:10:27.286Z,24.27
2023-06-11T08:13:34.296Z,24.52
2023-06-11T08:16:40.131Z,24.19
2023-06-11T08:19:46.370Z,24.33
2023-06-11T08:22:52.198Z,24.27
2023-06-11T08:26:02.676Z,24.17
2023-06-11T08:29:08.109Z,24.35
2023-06-11T08:32:13.703Z,24.25
2023-06-11T08:35:19.340Z,24.68
2023-06-11T08:38:29.537Z,24.64
2023-06-11T08:41:35.246Z,24.60
2023-06-11T08:44:41.196Z,24.84
2023-06-11T08:47:53.699Z,25.04
2023-06-11T08:51:03.546Z,25.19
2023-06-11T08:54:10.980Z,25.33
2023-06-11T08:57:16.644Z,25.22
2023-06-11T09:00:22.631Z,25.38
2023-06-11T09:03:28.292Z,25.11
2023-06-11T09:06:35.839Z,25.21
2023-06-11T09:09:41.205Z,25.47
2023-06-11T09:12:47.433Z,25.56
2023-06-11T09:15:56.429Z,25.59
2023-06-11T09:19:02.263Z,25.49
2023-06-11T09:22:07.837Z,25.46
2023-06-11T09:25:19.546Z,25.37
2023-06-11T09:28:36.065Z,25.57
2023-06-11T09:31:41.537Z,25.86
2023-06-11T09:34:47.554Z,25.92
2023-06-11T09:37:54.088Z,25.86
2023-06-11T09:40:59.687Z,25.89
2023-06-11T09:44:05.622Z,25.80
2023-06-11T09:47:11.047Z,25.62
2023-06-11T09:50:18.648Z,25.69
2023-06-11T09:53:24.443Z,25.79
2023-06-11T09:56:30.840Z,25.68
2023-06-11T09:59:38.895Z,26.04
2023-06-11T10:02:46.169Z,26.11
2023-06-11T10:05:52.782Z,26.03
2023-06-11T10:09:02.325Z,26.26
2023-06-11T10:12:08.641Z,26.08
2023-06-11T10:15:17.731Z,26.09
2023-06-11T10:18:28.420Z,26.18
2023-06-11T10:21:51.985Z,26.14
2023-06-11T10:25:01.607Z,26.21
2023-06-11T10:28:08.018Z,26.40
2023-06-11T10:31:25.149Z,26.54
2023-06-11T10:34:41.246Z,26.62
2023-06-11T10:37:47.166Z,26.40
2023-06-11T10:41:05.310Z,26.37
2023-06-11T10:44:12.157Z,26.30
2023-06-11T10:47:17.616Z,26.76
2023-06-11T10:50:32.115Z,26.81
2023-06-11T10:53:42.465Z,26.72
2023-06-11T10:56:48.955Z,26.83
2023-06-11T10:59:54.938Z,26.92
2023-06-11T11:03:05.145Z,26.52
2023-06-11T11:06:12.707Z,26.41
2023-06-11T11:09:25.176Z,26.72
2023-06-11T11:12:40.263Z,26.89
2023-06-11T11:15:46.505Z,27.24
2023-06-11T11:18:52.497Z,26.98
2023-06-11T11:21:57.782Z,27.02
2023-06-11T11:25:08.758Z,27.21
2023-06-11T11:28:14.572Z,27.27
2023-06-11T11:31:23.015Z,27.22
2023-06-11T11:34:29.237Z,27.35
2023-06-11T11:37:35.063Z,27.07
2023-06-11T11:40:40.281Z,27.00
2023-06-11T11:43:46.308Z,26.93
2023-06-11T11:46:59.263Z,27.12
2023-06-11T11:50:05.227Z,27.22
2023-06-11T11:53:16.653Z,27.40
2023-06-11T11:56:22.480Z,27.17
2023-06-11T11:59:29.295Z,27.41
2023-06-11T12:02:35.261Z,27.20
2023-06-11T12:05:41.015Z,27.37
2023-06-11T12:08:46.976Z,27.68
2023-06-11T12:12:04.602Z,27.57
2023-06-11T12:15:10.912Z,27.60
2023-06-11T12:18:16.735Z,27.78
2023-06-11T12:21:21.987Z,27.97
2023-06-11T12:24:27.414Z,27.89
2023-06-11T12:27:32.772Z,27.88
2023-06-11T12:30:38.256Z,27.41
2023-06-11T12:33:43.529Z,27.26
2023-06-11T12:36:52.508Z,27.70
2023-06-11T12:39:58.953Z,27.83
2023-06-11T12:43:05.061Z,28.11
2023-06-11T12:46:12.094Z,28.23
2023-06-11T12:49:17.915Z,28.25
2023-06-11T12:52:23.860Z,28.16
2023-06-11T12:55:29.235Z,28.24
2023-06-11T12:58:34.365Z,28.21
2023-06-11T13:01:39.605Z,27.75
2023-06-11T13:04:44.844Z,27.50
2023-06-11T13:07:51.542Z,27.51
2023-06-11T13:10:59.458Z,27.21
2023-06-11T13:14:06.273Z,27.29
2023-06-11T13:17:11.459Z,27.29
2023-06-11T13:20:21.406Z,27.99
2023-06-11T13:23:32.830Z,28.05
2023-06-11T13:26:39.170Z,28.14
2023-06-11T13:29:44.849Z,28.36
2023-06-11T13:32:50.670Z,27.94
2023-06-11T13:35:56.943Z,27.91
2023-06-11T13:39:02.717Z,27.61
2023-06-11T13:42:08.455Z,28.13
2023-06-11T13:45:13.840Z,28.54
2023-06-11T13:48:21.356Z,28.49
2023-06-11T13:51:29.262Z,28.08
2023-06-11T13:54:34.654Z,28.21
2023-06-11T13:57:42.904Z,27.80
2023-06-11T14:00:50.890Z,27.65
2023-06-11T14:03:58.123Z,27.56
2023-06-11T14:07:04.760Z,27.56
2023-06-11T14:10:10.741Z,27.44
2023-06-11T14:13:16.572Z,28.30
2023-06-11T14:16:22.454Z,28.61
2023-06-11T14:19:28.577Z,28.50
2023-06-11T14:22:34.313Z,28.02
2023-06-11T14:25:40.160Z,28.14
2023-06-11T14:28:46.015Z,28.32
2023-06-11T14:31:51.757Z,28.18
2023-06-11T14:34:57.658Z,28.50
2023-06-11T14:38:04.366Z,28.69
2023-06-11T14:41:10.717Z,28.74
2023-06-11T14:44:16.435Z,28.70
2023-06-11T14:47:21.333Z,28.71
2023-06-11T14:50:26.862Z,28.54
2023-06-11T14:53:33.163Z,28.61
2023-06-11T14:56:39.099Z,28.66
2023-06-11T14:59:44.738Z,28.89
2023-06-11T15:02:50.174Z,28.50
2023-06-11T15:05:57.920Z,28.80
2023-06-11T15:09:02.898Z,28.79
2023-06-11T15:12:10.787Z,28.99
2023-06-11T15:15:16.679Z,29.07
2023-06-11T15:18:22.004Z,29.23
2023-06-11T15:21:27.632Z,28.97
2023-06-11T15:24:33.457Z,29.10
2023-06-11T15:27:38.948Z,28.56
2023-06-11T15:30:45.845Z,29.01
2023-06-11T15:33:51.366Z,29.34
2023-06-11T15:36:57.170Z,29.06
2023-06-11T15:40:02.499Z,28.31
2023-06-11T15:43:08.064Z,28.03
2023-06-11T15:46:13.430Z,28.60
2023-06-11T15:49:19.864Z,28.80
2023-06-11T15:52:25.185Z,28.86
2023-06-11T15:55:30.558Z,28.74
2023-06-11T15:59:44.091Z,28.82
2023-06-11T16:02:49.784Z,28.77
2023-06-11T16:05:55.058Z,28.72
2023-06-11T16:09:00.446Z,28.66
2023-06-11T16:12:05.804Z,28.79
2023-06-11T16:15:11.623Z,28.74
2023-06-11T16:18:17.176Z,28.49
2023-06-11T16:21:22.622Z,28.42
2023-06-11T16:24:28.488Z,28.27
2023-06-11T16:27:33.630Z,28.29
2023-06-11T16:30:38.766Z,28.19
2023-06-11T16:33:57.158Z,27.82
2023-06-11T16:37:04.025Z,27.52
2023-06-11T16:40:09.537Z,27.43
2023-06-11T16:43:15.239Z,27.17
2023-06-11T16:46:21.138Z,27.17
2023-06-11T16:49:26.924Z,27.20
2023-06-11T16:52:33.024Z,27.14
2023-06-11T16:55:41.465Z,27.13
2023-06-11T16:58:47.049Z,26.93
2023-06-11T17:01:52.800Z,26.96
2023-06-11T17:04:58.392Z,26.85
2023-06-11T17:08:04.085Z,26.70
2023-06-11T17:11:09.648Z,26.64
2023-06-11T17:14:15.096Z,26.68
2023-06-11T17:17:20.679Z,26.67
2023-06-11T17:20:27.698Z,26.57
2023-06-11T17:23:33.029Z,26.51
2023-06-11T17:26:39.749Z,26.40
2023-06-11T17:29:45.192Z,26.40
2023-06-11T17:32:50.755Z,26.27
2023-06-11T17:35:55.960Z,26.29
2023-06-11T17:39:01.023Z,26.23
2023-06-11T17:42:07.678Z,26.19
2023-06-11T17:45:13.731Z,26.22
2023-06-11T17:48:21.634Z,26.22
2023-06-11T17:51:27.553Z,26.06
2023-06-11T17:54:33.900Z,26.01
2023-06-11T17:57:39.182Z,25.96
2023-06-11T18:00:44.608Z,25.95
2023-06-11T18:03:50.506Z,25.90
2023-06-11T18:06:56.297Z,25.85
2023-06-11T18:10:02.440Z,25.77
2023-06-11T18:13:07.795Z,25.73
2023-06-11T18:16:13.426Z,25.66
2023-06-11T18:19:19.320Z,25.52
2023-06-11T18:22:29.044Z,25.49
2023-06-11T18:25:34.303Z,25.39
2023-06-11T18:28:39.644Z,25.26
2023-06-11T18:31:45.503Z,24.53
2023-06-11T18:34:51.290Z,24.13
2023-06-11T18:37:57.148Z,23.75
2023-06-11T18:41:02.502Z,23.47
2023-06-11T18:44:08.078Z,23.30
2023-06-11T18:47:21.195Z,23.09
2023-06-11T18:50:28.098Z,23.15
2023-06-11T18:53:33.332Z,22.96
2023-06-11T18:56:38.606Z,22.89
2023-06-11T18:59:44.340Z,22.77
2023-06-11T19:02:49.790Z,22.34
2023-06-11T19:05:54.862Z,21.97
2023-06-11T19:09:00.466Z,21.73
2023-06-11T19:12:07.816Z,21.34
2023-06-11T19:15:13.608Z,21.51
2023-06-11T19:18:19.732Z,21.17
2023-06-11T19:21:26.609Z,21.23
2023-06-11T19:24:32.239Z,21.09
2023-06-11T19:27:38.082Z,20.97
2023-06-11T19:30:43.774Z,20.94
2023-06-11T19:33:49.588Z,20.86
2023-06-11T19:36:55.312Z,20.42
2023-06-11T19:40:01.512Z,20.64
2023-06-11T19:43:07.423Z,20.80
2023-06-11T19:46:14.280Z,20.98
2023-06-11T19:49:20.220Z,21.00
2023-06-11T19:52:25.657Z,20.81
2023-06-11T19:55:36.963Z,20.77
2023-06-11T19:58:42.650Z,20.70
2023-06-11T20:01:48.503Z,20.65
2023-06-11T20:04:53.942Z,20.75
2023-06-11T20:08:01.888Z,20.74
2023-06-11T20:11:12.491Z,20.77
2023-06-11T20:14:17.749Z,20.77
2023-06-11T20:17:23.898Z,20.80
2023-06-11T20:20:29.994Z,20.71
2023-06-11T20:23:36.460Z,20.69
2023-06-11T20:26:42.300Z,20.78
2023-06-11T20:29:47.729Z,20.88
2023-06-11T20:32:53.473Z,20.69
2023-06-11T20:35:59.510Z,20.66
2023-06-11T20:39:05.213Z,20.60
2023-06-11T20:42:11.451Z,20.57
2023-06-11T20:45:17.087Z,20.82
2023-06-11T20:48:22.803Z,20.58
2023-06-11T20:51:28.282Z,20.49
2023-06-11T20:54:33.903Z,20.56
2023-06-11T20:57:40.202Z,20.55
2023-06-11T21:00:45.813Z,20.52
2023-06-11T21:03:51.465Z,20.60
2023-06-11T21:06:57.289Z,20.47
2023-06-11T21:10:03.028Z,20.57
2023-06-11T21:13:08.625Z,20.52
2023-06-11T21:16:14.296Z,20.56
2023-06-11T21:19:20.518Z,20.47
2023-06-11T21:22:26.085Z,20.77
2023-06-11T21:25:31.702Z,20.69
2023-06-11T21:28:37.386Z,20.62
2023-06-11T21:31:44.184Z,20.62
2023-06-11T21:34:49.813Z,20.47
2023-06-11T21:37:55.620Z,20.40
2023-06-11T21:41:01.729Z,20.17
2023-06-11T21:44:07.178Z,20.18
2023-06-11T21:47:13.008Z,20.19
2023-06-11T21:50:18.680Z,20.32
2023-06-11T21:53:24.311Z,20.08
2023-06-11T21:56:30.059Z,20.04
2023-06-11T21:59:35.449Z,20.11
2023-06-11T22:02:42.403Z,20.14
2023-06-11T22:05:48.242Z,20.16
2023-06-11T22:08:55.857Z,20.12
2023-06-11T22:12:01.789Z,20.20
2023-06-11T22:15:08.157Z,20.10
2023-06-11T22:18:14.112Z,20.15
2023-06-11T22:21:19.501Z,20.23
2023-06-11T22:24:24.951Z,20.13
2023-06-11T22:27:32.900Z,20.16
2023-06-11T22:30:52.668Z,19.98
2023-06-11T22:34:02.558Z,20.17
2023-06-11T22:37:07.986Z,20.17
2023-06-11T22:40:13.724Z,20.08
2023-06-11T22:43:19.123Z,20.04
2023-06-11T22:46:25.088Z,20.12
2023-06-11T22:49:32.867Z,20.11
2023-06-11T22:52:41.236Z,19.86
2023-06-11T22:55:47.006Z,19.98
2023-06-11T22:58:52.792Z,20.09
2023-06-11T23:01:58.271Z,19.91
2023-06-11T23:05:04.990Z,19.80
2023-06-11T23:08:10.565Z,19.90
2023-06-11T23:11:15.922Z,20.04
2023-06-11T23:14:21.801Z,20.23
2023-06-11T23:17:29.326Z,20.32
2023-06-11T23:20:36.211Z,20.33
2023-06-11T23:23:43.431Z,20.28
2023-06-11T23:26:51.500Z,20.24
2023-06-11T23:29:58.304Z,20.28
2023-06-11T23:33:03.682Z,20.18
2023-06-11T23:36:09.854Z,20.13
2023-06-11T23:39:16.509Z,20.15
2023-06-11T23:42:22.160Z,20.08
2023-06-11T23:45:27.625Z,20.07
2023-06-11T23:48:33.225Z,20.05
2023-06-11T23:51:59.961Z,19.97
2023-06-11T23:55:05.996Z,20.03
2023-06-11T23:58:18.735Z,19.95
